sensor_id;sensor_type;location;lat;lon;timestamp;pressure;altitude;pressure_sealevel;temperature;humidity
55664;BME280;41540;57.880;12.164;2022-08-03T00:09:54;99952.16;;;15.53;nan
55664;BME280;41540;57.880;12.164;2022-08-03T00:19:54;99927.81;;;15.51;nan
55664;BME280;41540;57.880;12.164;2022-08-03T00:29:55;99951.03;;;15.72;nan
55664;BME280;41540;57.880;12.164;2022-08-03T00:39:55;99939.72;;;15.72;nan
55664;BME280;41540;57.880;12.164;2022-08-03T00:49:56;99965.53;;;15.96;nan
55664;BME280;41540;57.880;12.164;2022-08-03T00:59:57;99920.50;;;15.79;nan
55664;BME280;41540;57.880;12.164;2022-08-03T01:10:12;99935.97;;;15.94;nan
55664;BME280;41540;57.880;12.164;2022-08-03T01:20:16;99937.47;;;16.12;nan
55664;BME280;41540;57.880;12.164;2022-08-03T01:30:17;99898.56;;;15.92;nan
55664;BME280;41540;57.880;12.164;2022-08-03T01:40:21;99932.16;;;16.17;nan
55664;BME280;41540;57.880;12.164;2022-08-03T01:50:26;99935.56;;;16.22;nan
55664;BME280;41540;57.880;12.164;2022-08-03T02:00:28;99941.66;;;16.21;nan
55664;BME280;41540;57.880;12.164;2022-08-03T02:10:31;99925.34;;;16.07;nan
55664;BME280;41540;57.880;12.164;2022-08-03T02:20:33;99861.28;;;15.81;nan
55664;BME280;41540;57.880;12.164;2022-08-03T02:30:37;99933.78;;;16.26;nan
55664;BME280;41540;57.880;12.164;2022-08-03T02:40:39;99918.03;;;16.27;nan
55664;BME280;41540;57.880;12.164;2022-08-03T02:50:43;99936.16;;;16.40;nan
55664;BME280;41540;57.880;12.164;2022-08-03T03:00:44;99914.44;;;16.36;nan
55664;BME280;41540;57.880;12.164;2022-08-03T03:10:46;99933.38;;;16.50;nan
55664;BME280;41540;57.880;12.164;2022-08-03T03:20:46;99930.88;;;16.43;nan
55664;BME280;41540;57.880;12.164;2022-08-03T03:30:49;99936.84;;;16.51;nan
55664;BME280;41540;57.880;12.164;2022-08-03T03:40:50;99846.19;;;16.02;nan
55664;BME280;41540;57.880;12.164;2022-08-03T03:50:51;99945.38;;;16.61;nan
55664;BME280;41540;57.880;12.164;2022-08-03T04:00:52;99969.38;;;16.86;nan
55664;BME280;41540;57.880;12.164;2022-08-03T04:21:10;99930.34;;;16.75;nan
55664;BME280;41540;57.880;12.164;2022-08-03T04:31:13;99966.47;;;17.03;nan
55664;BME280;41540;57.880;12.164;2022-08-03T04:41:15;99931.88;;;16.88;nan
55664;BME280;41540;57.880;12.164;2022-08-03T04:51:16;99893.75;;;16.72;nan
55664;BME280;41540;57.880;12.164;2022-08-03T05:01:17;99964.47;;;17.17;nan
55664;BME280;41540;57.880;12.164;2022-08-03T05:11:19;99904.94;;;16.80;nan
55664;BME280;41540;57.880;12.164;2022-08-03T05:21:20;99964.38;;;17.22;nan
55664;BME280;41540;57.880;12.164;2022-08-03T05:31:20;99925.41;;;17.06;nan
55664;BME280;41540;57.880;12.164;2022-08-03T05:41:21;99901.16;;;16.98;nan
55664;BME280;41540;57.880;12.164;2022-08-03T05:51:21;99946.38;;;17.48;nan
55664;BME280;41540;57.880;12.164;2022-08-03T06:01:21;99920.88;;;17.58;nan
55664;BME280;41540;57.880;12.164;2022-08-03T06:11:22;99851.75;;;17.65;nan
55664;BME280;41540;57.880;12.164;2022-08-03T06:21:23;99829.59;;;18.16;nan
55664;BME280;41540;57.880;12.164;2022-08-03T06:31:25;99807.47;;;18.28;nan
55664;BME280;41540;57.880;12.164;2022-08-03T06:41:27;99735.75;;;18.30;nan
55664;BME280;41540;57.880;12.164;2022-08-03T06:51:27;99687.16;;;18.78;nan
55664;BME280;41540;57.880;12.164;2022-08-03T07:01:28;99738.91;;;18.73;nan
55664;BME280;41540;57.880;12.164;2022-08-03T07:11:28;99736.75;;;19.17;nan
55664;BME280;41540;57.880;12.164;2022-08-03T07:21:29;99694.34;;;18.42;nan
55664;BME280;41540;57.880;12.164;2022-08-03T07:31:29;99745.50;;;18.88;nan
55664;BME280;41540;57.880;12.164;2022-08-03T07:41:30;99737.56;;;18.28;nan
55664;BME280;41540;57.880;12.164;2022-08-03T07:51:31;99772.06;;;18.11;nan
55664;BME280;41540;57.880;12.164;2022-08-03T08:01:31;99734.25;;;17.87;nan
55664;BME280;41540;57.880;12.164;2022-08-03T08:11:34;99750.53;;;18.96;nan
55664;BME280;41540;57.880;12.164;2022-08-03T08:21:35;99761.44;;;18.82;nan
55664;BME280;41540;57.880;12.164;2022-08-03T08:31:35;99720.38;;;19.09;nan
55664;BME280;41540;57.880;12.164;2022-08-03T08:41:36;99739.00;;;19.56;nan
55664;BME280;41540;57.880;12.164;2022-08-03T08:51:38;99743.72;;;18.59;nan
55664;BME280;41540;57.880;12.164;2022-08-03T09:01:39;99756.91;;;18.87;nan
55664;BME280;41540;57.880;12.164;2022-08-03T09:11:43;99731.66;;;19.67;nan
55664;BME280;41540;57.880;12.164;2022-08-03T09:21:44;99749.97;;;20.22;nan
55664;BME280;41540;57.880;12.164;2022-08-03T09:31:45;99750.53;;;19.80;nan
55664;BME280;41540;57.880;12.164;2022-08-03T09:41:47;99730.69;;;19.43;nan
55664;BME280;41540;57.880;12.164;2022-08-03T09:51:48;99724.66;;;19.95;nan
55664;BME280;41540;57.880;12.164;2022-08-03T10:01:49;99738.16;;;19.84;nan
55664;BME280;41540;57.880;12.164;2022-08-03T10:11:49;99706.19;;;19.96;nan
55664;BME280;41540;57.880;12.164;2022-08-03T10:21:54;99708.47;;;19.80;nan
55664;BME280;41540;57.880;12.164;2022-08-03T10:31:57;99685.69;;;19.81;nan
55664;BME280;41540;57.880;12.164;2022-08-03T10:41:59;99718.41;;;19.71;nan
55664;BME280;41540;57.880;12.164;2022-08-03T10:52:00;99674.41;;;19.24;nan
55664;BME280;41540;57.880;12.164;2022-08-03T11:02:01;99689.22;;;20.05;nan
55664;BME280;41540;57.880;12.164;2022-08-03T11:12:20;99695.75;;;19.41;nan
55664;BME280;41540;57.880;12.164;2022-08-03T11:22:21;99715.00;;;18.84;nan
55664;BME280;41540;57.880;12.164;2022-08-03T11:52:38;99761.38;;;21.41;nan
55664;BME280;41540;57.880;12.164;2022-08-03T12:02:38;99816.09;;;20.37;nan
55664;BME280;41540;57.880;12.164;2022-08-03T12:12:40;99820.19;;;20.45;nan
55664;BME280;41540;57.880;12.164;2022-08-03T12:22:41;99837.13;;;20.37;nan
55664;BME280;41540;57.880;12.164;2022-08-03T12:32:42;99762.28;;;19.68;nan
55664;BME280;41540;57.880;12.164;2022-08-03T12:42:43;99792.03;;;19.97;nan
55664;BME280;41540;57.880;12.164;2022-08-03T12:52:43;99743.16;;;20.67;nan
55664;BME280;41540;57.880;12.164;2022-08-03T13:02:45;99779.38;;;20.59;nan
55664;BME280;41540;57.880;12.164;2022-08-03T13:12:47;99816.00;;;21.14;nan
55664;BME280;41540;57.880;12.164;2022-08-03T13:22:47;99824.09;;;20.34;nan
55664;BME280;41540;57.880;12.164;2022-08-03T13:32:48;99771.69;;;20.53;nan
55664;BME280;41540;57.880;12.164;2022-08-03T13:42:48;99777.28;;;21.16;nan
55664;BME280;41540;57.880;12.164;2022-08-03T13:52:48;99813.75;;;21.03;nan
55664;BME280;41540;57.880;12.164;2022-08-03T14:02:49;99743.66;;;21.00;nan
55664;BME280;41540;57.880;12.164;2022-08-03T14:12:49;99809.34;;;21.03;nan
55664;BME280;41540;57.880;12.164;2022-08-03T14:22:50;99812.28;;;21.87;nan
55664;BME280;41540;57.880;12.164;2022-08-03T14:32:50;99775.03;;;22.15;nan
55664;BME280;41540;57.880;12.164;2022-08-03T14:42:52;99739.03;;;21.94;nan
55664;BME280;41540;57.880;12.164;2022-08-03T14:52:52;99808.34;;;21.75;nan
55664;BME280;41540;57.880;12.164;2022-08-03T15:02:53;99731.31;;;21.69;nan
55664;BME280;41540;57.880;12.164;2022-08-03T15:12:53;99796.72;;;23.60;nan
55664;BME280;41540;57.880;12.164;2022-08-03T15:22:54;99825.59;;;23.07;nan
55664;BME280;41540;57.880;12.164;2022-08-03T15:32:54;99830.69;;;22.72;nan
55664;BME280;41540;57.880;12.164;2022-08-03T15:42:55;99796.34;;;22.11;nan
55664;BME280;41540;57.880;12.164;2022-08-03T15:52:55;99838.38;;;21.93;nan
55664;BME280;41540;57.880;12.164;2022-08-03T16:02:56;99779.13;;;21.14;nan
55664;BME280;41540;57.880;12.164;2022-08-03T16:12:56;99814.31;;;21.11;nan
55664;BME280;41540;57.880;12.164;2022-08-03T16:23:01;99826.94;;;21.27;nan
55664;BME280;41540;57.880;12.164;2022-08-03T16:33:02;99777.09;;;21.20;nan
55664;BME280;41540;57.880;12.164;2022-08-03T16:43:12;99828.28;;;21.13;nan
55664;BME280;41540;57.880;12.164;2022-08-03T16:53:13;99766.56;;;20.24;nan
55664;BME280;41540;57.880;12.164;2022-08-03T17:03:18;99817.06;;;20.61;nan
55664;BME280;41540;57.880;12.164;2022-08-03T17:13:19;99810.03;;;20.35;nan
55664;BME280;41540;57.880;12.164;2022-08-03T17:23:40;99851.22;;;20.86;nan
55664;BME280;41540;57.880;12.164;2022-08-03T17:33:44;99880.78;;;20.69;nan
55664;BME280;41540;57.880;12.164;2022-08-03T17:43:46;99884.41;;;20.40;nan
55664;BME280;41540;57.880;12.164;2022-08-03T17:53:56;99883.94;;;20.27;nan
55664;BME280;41540;57.880;12.164;2022-08-03T18:04:02;99865.69;;;19.94;nan
55664;BME280;41540;57.880;12.164;2022-08-03T18:14:24;99856.00;;;19.68;nan
55664;BME280;41540;57.880;12.164;2022-08-03T18:24:28;99867.59;;;19.61;nan
55664;BME280;41540;57.880;12.164;2022-08-03T18:34:29;99798.06;;;19.15;nan
55664;BME280;41540;57.880;12.164;2022-08-03T18:44:29;99838.63;;;19.36;nan
55664;BME280;41540;57.880;12.164;2022-08-03T18:54:40;99867.44;;;19.37;nan
55664;BME280;41540;57.880;12.164;2022-08-03T19:04:46;99874.88;;;19.23;nan
55664;BME280;41540;57.880;12.164;2022-08-03T19:14:52;99852.81;;;18.99;nan
55664;BME280;41540;57.880;12.164;2022-08-03T19:24:53;99842.34;;;18.64;nan
55664;BME280;41540;57.880;12.164;2022-08-03T19:34:58;99903.13;;;18.82;nan
55664;BME280;41540;57.880;12.164;2022-08-03T19:45:07;99905.50;;;18.57;nan
55664;BME280;41540;57.880;12.164;2022-08-03T19:55:09;99921.44;;;18.49;nan
55664;BME280;41540;57.880;12.164;2022-08-03T20:05:10;99905.25;;;18.31;nan
55664;BME280;41540;57.880;12.164;2022-08-03T20:15:11;99904.16;;;18.04;nan
55664;BME280;41540;57.880;12.164;2022-08-03T20:25:12;99878.38;;;17.86;nan
55664;BME280;41540;57.880;12.164;2022-08-03T20:35:12;99921.25;;;18.21;nan
55664;BME280;41540;57.880;12.164;2022-08-03T20:45:13;99930.00;;;18.20;nan
55664;BME280;41540;57.880;12.164;2022-08-03T20:55:16;99821.66;;;17.44;nan
55664;BME280;41540;57.880;12.164;2022-08-03T21:05:17;99820.94;;;17.39;nan
55664;BME280;41540;57.880;12.164;2022-08-03T21:15:25;99930.69;;;17.90;nan
55664;BME280;41540;57.880;12.164;2022-08-03T21:25:28;99929.06;;;17.83;nan
55664;BME280;41540;57.880;12.164;2022-08-03T21:35:28;99855.97;;;17.33;nan
55664;BME280;41540;57.880;12.164;2022-08-03T21:45:30;99896.75;;;17.42;nan
55664;BME280;41540;57.880;12.164;2022-08-03T21:55:36;99783.16;;;16.65;nan
55664;BME280;41540;57.880;12.164;2022-08-03T22:05:38;99866.06;;;17.08;nan
55664;BME280;41540;57.880;12.164;2022-08-03T22:15:38;99912.66;;;17.33;nan
55664;BME280;41540;57.880;12.164;2022-08-03T22:25:39;99886.03;;;17.12;nan
55664;BME280;41540;57.880;12.164;2022-08-03T22:35:43;99940.97;;;17.12;nan
55664;BME280;41540;57.880;12.164;2022-08-03T22:45:44;99919.91;;;16.72;nan
55664;BME280;41540;57.880;12.164;2022-08-03T22:55:50;99965.03;;;16.86;nan
55664;BME280;41540;57.880;12.164;2022-08-03T23:05:53;99966.28;;;16.62;nan
55664;BME280;41540;57.880;12.164;2022-08-03T23:15:58;99968.72;;;16.73;nan
55664;BME280;41540;57.880;12.164;2022-08-03T23:25:58;99979.09;;;16.77;nan
55664;BME280;41540;57.880;12.164;2022-08-03T23:36:00;99985.31;;;16.70;nan
55664;BME280;41540;57.880;12.164;2022-08-03T23:46:06;100004.44;;;16.72;nan
